sensor_id;sensor_type;location;lat;lon;timestamp;temperature;humidity
5457;DHT22;2751;49.802;9.944;2023-04-03T00:00:50;2.80;99.90
5457;DHT22;2751;49.802;9.944;2023-04-03T00:03:17;2.70;99.90
5457;DHT22;2751;49.802;9.944;2023-04-03T00:05:45;2.70;99.90
5457;DHT22;2751;49.802;9.944;2023-04-03T00:08:12;2.60;99.90
5457;DHT22;2751;49.802;9.944;2023-04-03T00:10:39;2.60;99.90
5457;DHT22;2751;49.802;9.944;2023-04-03T00:13:07;2.60;99.90
5457;DHT22;2751;49.802;9.944;2023-04-03T00:15:34;2.80;99.90
5457;DHT22;2751;49.802;9.944;2023-04-03T00:18:02;2.60;99.90
5457;DHT22;2751;49.802;9.944;2023-04-03T00:20:29;2.60;99.90
5457;DHT22;2751;49.802;9.944;2023-04-03T00:22:57;2.60;99.90
5457;DHT22;2751;49.802;9.944;2023-04-03T00:25:24;2.60;99.90
5457;DHT22;2751;49.802;9.944;2023-04-03T00:27:51;2.60;99.90
5457;DHT22;2751;49.802;9.944;2023-04-03T00:30:20;3.00;99.90
5457;DHT22;2751;49.802;9.944;2023-04-03T00:32:47;2.50;99.90
5457;DHT22;2751;49.802;9.944;2023-04-03T00:35:15;2.50;99.90
5457;DHT22;2751;49.802;9.944;2023-04-03T00:37:42;2.50;99.90
5457;DHT22;2751;49.802;9.944;2023-04-03T00:40:12;2.50;99.90
5457;DHT22;2751;49.802;9.944;2023-04-03T00:42:41;2.60;99.90
5457;DHT22;2751;49.802;9.944;2023-04-03T00:48:01;2.60;99.90
5457;DHT22;2751;49.802;9.944;2023-04-03T00:50:31;2.60;99.90
5457;DHT22;2751;49.802;9.944;2023-04-03T00:52:59;2.70;99.90
5457;DHT22;2751;49.802;9.944;2023-04-03T00:55:29;2.60;99.90
5457;DHT22;2751;49.802;9.944;2023-04-03T00:57:56;2.60;99.90
5457;DHT22;2751;49.802;9.944;2023-04-03T01:00:24;2.70;99.90
5457;DHT22;2751;49.802;9.944;2023-04-03T01:02:51;2.70;99.90
5457;DHT22;2751;49.802;9.944;2023-04-03T01:05:19;2.70;99.90
5457;DHT22;2751;49.802;9.944;2023-04-03T01:07:48;2.70;99.90
5457;DHT22;2751;49.802;9.944;2023-04-03T01:10:17;2.70;99.90
5457;DHT22;2751;49.802;9.944;2023-04-03T01:12:48;2.80;99.90
5457;DHT22;2751;49.802;9.944;2023-04-03T01:15:17;2.70;99.90
5457;DHT22;2751;49.802;9.944;2023-04-03T01:17:46;2.80;99.90
5457;DHT22;2751;49.802;9.944;2023-04-03T01:20:40;2.80;99.90
5457;DHT22;2751;49.802;9.944;2023-04-03T01:23:19;2.80;99.90
5457;DHT22;2751;49.802;9.944;2023-04-03T01:25:49;2.80;99.90
5457;DHT22;2751;49.802;9.944;2023-04-03T01:28:21;3.20;99.90
5457;DHT22;2751;49.802;9.944;2023-04-03T01:30:51;2.80;99.90
5457;DHT22;2751;49.802;9.944;2023-04-03T01:33:21;2.80;99.90
5457;DHT22;2751;49.802;9.944;2023-04-03T01:35:48;2.80;99.90
5457;DHT22;2751;49.802;9.944;2023-04-03T01:38:15;2.80;99.90
5457;DHT22;2751;49.802;9.944;2023-04-03T01:40:42;2.90;99.90
5457;DHT22;2751;49.802;9.944;2023-04-03T01:43:09;3.00;99.90
5457;DHT22;2751;49.802;9.944;2023-04-03T01:45:36;3.10;99.90
5457;DHT22;2751;49.802;9.944;2023-04-03T01:48:04;3.10;99.90
5457;DHT22;2751;49.802;9.944;2023-04-03T01:50:32;2.70;99.90
5457;DHT22;2751;49.802;9.944;2023-04-03T01:52:59;3.10;99.90
5457;DHT22;2751;49.802;9.944;2023-04-03T01:55:26;3.20;99.90
5457;DHT22;2751;49.802;9.944;2023-04-03T01:57:53;3.30;99.90
5457;DHT22;2751;49.802;9.944;2023-04-03T02:00:20;3.30;99.90
5457;DHT22;2751;49.802;9.944;2023-04-03T02:02:47;3.40;99.90
5457;DHT22;2751;49.802;9.944;2023-04-03T02:05:14;3.40;99.90
5457;DHT22;2751;49.802;9.944;2023-04-03T02:07:43;3.50;99.90
5457;DHT22;2751;49.802;9.944;2023-04-03T02:10:10;3.60;99.90
5457;DHT22;2751;49.802;9.944;2023-04-03T02:12:37;3.50;99.90
5457;DHT22;2751;49.802;9.944;2023-04-03T02:15:04;3.50;99.90
5457;DHT22;2751;49.802;9.944;2023-04-03T02:17:32;3.40;99.90
5457;DHT22;2751;49.802;9.944;2023-04-03T02:19:58;3.30;99.90
5457;DHT22;2751;49.802;9.944;2023-04-03T02:22:25;3.20;99.90
5457;DHT22;2751;49.802;9.944;2023-04-03T02:24:54;3.20;99.90
5457;DHT22;2751;49.802;9.944;2023-04-03T02:27:21;3.30;99.90
5457;DHT22;2751;49.802;9.944;2023-04-03T02:29:47;3.30;99.90
5457;DHT22;2751;49.802;9.944;2023-04-03T02:32:15;3.40;99.90
5457;DHT22;2751;49.802;9.944;2023-04-03T02:34:41;3.50;99.90
5457;DHT22;2751;49.802;9.944;2023-04-03T02:37:09;3.90;99.90
5457;DHT22;2751;49.802;9.944;2023-04-03T02:39:35;3.60;99.90
5457;DHT22;2751;49.802;9.944;2023-04-03T02:42:04;3.60;99.90
5457;DHT22;2751;49.802;9.944;2023-04-03T02:44:31;3.60;99.90
5457;DHT22;2751;49.802;9.944;2023-04-03T02:46:58;3.70;99.90
5457;DHT22;2751;49.802;9.944;2023-04-03T02:49:24;3.70;99.90
5457;DHT22;2751;49.802;9.944;2023-04-03T02:51:51;3.80;99.90
5457;DHT22;2751;49.802;9.944;2023-04-03T02:54:18;3.80;99.90
5457;DHT22;2751;49.802;9.944;2023-04-03T02:56:46;3.90;99.90
5457;DHT22;2751;49.802;9.944;2023-04-03T02:59:14;3.90;99.90
5457;DHT22;2751;49.802;9.944;2023-04-03T03:01:41;4.00;99.90
5457;DHT22;2751;49.802;9.944;2023-04-03T03:04:08;4.00;99.90
5457;DHT22;2751;49.802;9.944;2023-04-03T03:06:35;4.10;99.90
5457;DHT22;2751;49.802;9.944;2023-04-03T03:09:02;4.10;99.90
5457;DHT22;2751;49.802;9.944;2023-04-03T03:11:29;4.20;99.90
5457;DHT22;2751;49.802;9.944;2023-04-03T03:13:56;4.20;99.90
5457;DHT22;2751;49.802;9.944;2023-04-03T03:16:24;4.30;99.90
5457;DHT22;2751;49.802;9.944;2023-04-03T03:18:51;4.30;99.90
5457;DHT22;2751;49.802;9.944;2023-04-03T03:21:18;4.40;99.90
5457;DHT22;2751;49.802;9.944;2023-04-03T03:23:45;4.40;99.90
5457;DHT22;2751;49.802;9.944;2023-04-03T03:26:12;4.40;99.90
5457;DHT22;2751;49.802;9.944;2023-04-03T03:28:39;4.40;99.90
5457;DHT22;2751;49.802;9.944;2023-04-03T03:31:08;4.40;99.90
5457;DHT22;2751;49.802;9.944;2023-04-03T03:33:37;4.40;99.90
5457;DHT22;2751;49.802;9.944;2023-04-03T03:36:04;4.40;99.90
5457;DHT22;2751;49.802;9.944;2023-04-03T03:38:31;4.40;99.90
5457;DHT22;2751;49.802;9.944;2023-04-03T03:40:57;4.40;99.90
5457;DHT22;2751;49.802;9.944;2023-04-03T03:43:25;4.40;99.90
5457;DHT22;2751;49.802;9.944;2023-04-03T03:45:52;4.40;99.90
5457;DHT22;2751;49.802;9.944;2023-04-03T03:48:20;4.70;99.90
5457;DHT22;2751;49.802;9.944;2023-04-03T03:50:49;4.40;99.90
5457;DHT22;2751;49.802;9.944;2023-04-03T03:53:16;4.60;99.90
5457;DHT22;2751;49.802;9.944;2023-04-03T03:55:43;4.30;99.90
5457;DHT22;2751;49.802;9.944;2023-04-03T03:58:10;4.30;99.90
5457;DHT22;2751;49.802;9.944;2023-04-03T04:00:37;4.30;99.90
5457;DHT22;2751;49.802;9.944;2023-04-03T04:03:04;4.50;99.90
5457;DHT22;2751;49.802;9.944;2023-04-03T04:05:31;4.20;99.90
5457;DHT22;2751;49.802;9.944;2023-04-03T04:07:59;4.10;99.90
5457;DHT22;2751;49.802;9.944;2023-04-03T04:10:26;4.10;99.90
5457;DHT22;2751;49.802;9.944;2023-04-03T04:12:53;4.10;99.90
5457;DHT22;2751;49.802;9.944;2023-04-03T04:15:20;4.00;99.90
5457;DHT22;2751;49.802;9.944;2023-04-03T04:17:48;4.00;99.90
5457;DHT22;2751;49.802;9.944;2023-04-03T04:20:15;4.00;99.90
5457;DHT22;2751;49.802;9.944;2023-04-03T04:22:42;3.90;99.90
5457;DHT22;2751;49.802;9.944;2023-04-03T04:25:10;3.90;99.90
5457;DHT22;2751;49.802;9.944;2023-04-03T04:27:37;3.80;99.90
5457;DHT22;2751;49.802;9.944;2023-04-03T04:30:06;3.80;99.90
5457;DHT22;2751;49.802;9.944;2023-04-03T04:32:33;3.70;99.90
5457;DHT22;2751;49.802;9.944;2023-04-03T04:35:00;3.60;99.90
5457;DHT22;2751;49.802;9.944;2023-04-03T04:37:26;3.60;99.90
5457;DHT22;2751;49.802;9.944;2023-04-03T04:39:53;3.60;99.90
5457;DHT22;2751;49.802;9.944;2023-04-03T04:42:22;3.50;99.90
5457;DHT22;2751;49.802;9.944;2023-04-03T04:44:49;3.50;99.90
5457;DHT22;2751;49.802;9.944;2023-04-03T04:47:16;3.50;99.90
5457;DHT22;2751;49.802;9.944;2023-04-03T04:49:43;3.40;99.90
5457;DHT22;2751;49.802;9.944;2023-04-03T04:52:12;3.40;99.90
5457;DHT22;2751;49.802;9.944;2023-04-03T04:54:39;3.40;99.90
5457;DHT22;2751;49.802;9.944;2023-04-03T04:57:06;3.40;99.90
5457;DHT22;2751;49.802;9.944;2023-04-03T04:59:35;3.40;99.90
5457;DHT22;2751;49.802;9.944;2023-04-03T05:02:02;3.30;99.90
5457;DHT22;2751;49.802;9.944;2023-04-03T05:04:29;3.30;99.90
5457;DHT22;2751;49.802;9.944;2023-04-03T05:06:56;3.30;99.90
5457;DHT22;2751;49.802;9.944;2023-04-03T05:09:23;3.20;99.90
5457;DHT22;2751;49.802;9.944;2023-04-03T05:11:50;3.20;99.90
5457;DHT22;2751;49.802;9.944;2023-04-03T05:14:17;3.10;99.90
5457;DHT22;2751;49.802;9.944;2023-04-03T05:16:45;3.30;99.90
5457;DHT22;2751;49.802;9.944;2023-04-03T05:19:13;2.90;99.90
5457;DHT22;2751;49.802;9.944;2023-04-03T05:21:40;2.90;99.90
5457;DHT22;2751;49.802;9.944;2023-04-03T05:24:07;2.90;99.90
5457;DHT22;2751;49.802;9.944;2023-04-03T05:26:35;2.90;99.90
5457;DHT22;2751;49.802;9.944;2023-04-03T05:29:02;2.90;99.90
5457;DHT22;2751;49.802;9.944;2023-04-03T05:31:29;2.80;99.90
5457;DHT22;2751;49.802;9.944;2023-04-03T05:33:58;2.80;99.90
5457;DHT22;2751;49.802;9.944;2023-04-03T05:36:25;2.70;99.90
5457;DHT22;2751;49.802;9.944;2023-04-03T05:38:52;2.70;99.90
5457;DHT22;2751;49.802;9.944;2023-04-03T05:41:19;2.70;99.90
5457;DHT22;2751;49.802;9.944;2023-04-03T05:43:47;2.70;99.90
5457;DHT22;2751;49.802;9.944;2023-04-03T05:46:16;2.70;99.90
5457;DHT22;2751;49.802;9.944;2023-04-03T05:48:43;2.70;99.90
5457;DHT22;2751;49.802;9.944;2023-04-03T05:51:16;2.70;99.90
5457;DHT22;2751;49.802;9.944;2023-04-03T05:53:44;2.70;99.90
5457;DHT22;2751;49.802;9.944;2023-04-03T05:56:11;2.70;99.90
5457;DHT22;2751;49.802;9.944;2023-04-03T05:58:38;2.70;99.90
5457;DHT22;2751;49.802;9.944;2023-04-03T06:01:05;2.70;99.90
5457;DHT22;2751;49.802;9.944;2023-04-03T06:03:33;2.80;99.90
5457;DHT22;2751;49.802;9.944;2023-04-03T06:06:03;2.80;99.90
5457;DHT22;2751;49.802;9.944;2023-04-03T06:08:31;2.80;99.90
5457;DHT22;2751;49.802;9.944;2023-04-03T06:10:58;2.80;99.90
5457;DHT22;2751;49.802;9.944;2023-04-03T06:13:25;2.90;99.90
5457;DHT22;2751;49.802;9.944;2023-04-03T06:15:52;2.80;99.90
5457;DHT22;2751;49.802;9.944;2023-04-03T06:18:19;2.80;99.90
5457;DHT22;2751;49.802;9.944;2023-04-03T06:20:46;2.80;99.90
5457;DHT22;2751;49.802;9.944;2023-04-03T06:23:13;2.80;99.90
5457;DHT22;2751;49.802;9.944;2023-04-03T06:25:41;3.00;99.90
5457;DHT22;2751;49.802;9.944;2023-04-03T06:28:08;3.00;99.90
5457;DHT22;2751;49.802;9.944;2023-04-03T06:30:36;3.00;99.90
5457;DHT22;2751;49.802;9.944;2023-04-03T06:33:03;3.10;99.90
5457;DHT22;2751;49.802;9.944;2023-04-03T06:35:30;3.10;99.90
5457;DHT22;2751;49.802;9.944;2023-04-03T06:37:57;3.20;99.90
5457;DHT22;2751;49.802;9.944;2023-04-03T06:40:25;3.20;99.90
5457;DHT22;2751;49.802;9.944;2023-04-03T06:42:53;3.50;99.90
5457;DHT22;2751;49.802;9.944;2023-04-03T06:45:20;3.30;99.90
5457;DHT22;2751;49.802;9.944;2023-04-03T06:47:47;3.40;99.90
5457;DHT22;2751;49.802;9.944;2023-04-03T06:50:14;3.40;99.90
5457;DHT22;2751;49.802;9.944;2023-04-03T06:52:41;3.50;99.90
5457;DHT22;2751;49.802;9.944;2023-04-03T06:55:08;3.40;99.90
5457;DHT22;2751;49.802;9.944;2023-04-03T06:57:35;3.40;99.90
5457;DHT22;2751;49.802;9.944;2023-04-03T07:00:05;3.40;99.90
5457;DHT22;2751;49.802;9.944;2023-04-03T07:02:33;3.60;99.90
5457;DHT22;2751;49.802;9.944;2023-04-03T07:05:00;3.60;99.90
5457;DHT22;2751;49.802;9.944;2023-04-03T07:07:27;3.90;99.90
5457;DHT22;2751;49.802;9.944;2023-04-03T07:09:53;3.70;99.90
5457;DHT22;2751;49.802;9.944;2023-04-03T07:12:20;3.70;99.90
5457;DHT22;2751;49.802;9.944;2023-04-03T07:14:47;3.80;99.90
5457;DHT22;2751;49.802;9.944;2023-04-03T07:17:15;3.80;99.90
5457;DHT22;2751;49.802;9.944;2023-04-03T07:19:42;3.90;99.90
5457;DHT22;2751;49.802;9.944;2023-04-03T07:22:09;3.90;99.90
5457;DHT22;2751;49.802;9.944;2023-04-03T07:24:37;4.00;99.90
5457;DHT22;2751;49.802;9.944;2023-04-03T07:27:05;4.00;99.90
5457;DHT22;2751;49.802;9.944;2023-04-03T07:29:33;4.00;99.90
5457;DHT22;2751;49.802;9.944;2023-04-03T07:32:01;4.10;99.90
5457;DHT22;2751;49.802;9.944;2023-04-03T07:34:29;4.20;99.90
5457;DHT22;2751;49.802;9.944;2023-04-03T07:36:56;4.30;99.90
5457;DHT22;2751;49.802;9.944;2023-04-03T07:39:23;4.40;99.90
5457;DHT22;2751;49.802;9.944;2023-04-03T07:41:50;4.90;99.90
5457;DHT22;2751;49.802;9.944;2023-04-03T07:44:17;4.80;99.90
5457;DHT22;2751;49.802;9.944;2023-04-03T07:46:44;5.80;99.90
5457;DHT22;2751;49.802;9.944;2023-04-03T07:49:12;6.00;99.90
5457;DHT22;2751;49.802;9.944;2023-04-03T07:51:40;6.40;99.90
5457;DHT22;2751;49.802;9.944;2023-04-03T07:54:07;6.80;99.90
5457;DHT22;2751;49.802;9.944;2023-04-03T07:56:34;7.20;99.90
5457;DHT22;2751;49.802;9.944;2023-04-03T07:59:01;7.40;99.90
5457;DHT22;2751;49.802;9.944;2023-04-03T08:01:28;7.60;99.90
5457;DHT22;2751;49.802;9.944;2023-04-03T08:03:57;7.80;99.90
5457;DHT22;2751;49.802;9.944;2023-04-03T08:06:24;8.30;99.90
5457;DHT22;2751;49.802;9.944;2023-04-03T08:08:53;8.50;99.90
5457;DHT22;2751;49.802;9.944;2023-04-03T08:11:20;8.70;99.90
5457;DHT22;2751;49.802;9.944;2023-04-03T08:13:46;8.50;99.90
5457;DHT22;2751;49.802;9.944;2023-04-03T08:16:17;8.00;99.90
5457;DHT22;2751;49.802;9.944;2023-04-03T08:18:44;8.30;99.90
5457;DHT22;2751;49.802;9.944;2023-04-03T08:21:12;8.10;99.90
5457;DHT22;2751;49.802;9.944;2023-04-03T08:23:39;7.80;99.90
5457;DHT22;2751;49.802;9.944;2023-04-03T08:26:10;8.10;99.90
5457;DHT22;2751;49.802;9.944;2023-04-03T08:28:38;8.50;99.90
5457;DHT22;2751;49.802;9.944;2023-04-03T08:31:06;9.40;99.90
5457;DHT22;2751;49.802;9.944;2023-04-03T08:33:33;9.80;99.90
5457;DHT22;2751;49.802;9.944;2023-04-03T08:36:02;9.80;99.90
5457;DHT22;2751;49.802;9.944;2023-04-03T08:38:29;9.20;99.90
5457;DHT22;2751;49.802;9.944;2023-04-03T08:41:06;8.40;99.90
5457;DHT22;2751;49.802;9.944;2023-04-03T08:43:47;9.20;99.90
5457;DHT22;2751;49.802;9.944;2023-04-03T08:46:23;10.00;98.20
5457;DHT22;2751;49.802;9.944;2023-04-03T08:48:53;10.80;97.00
5457;DHT22;2751;49.802;9.944;2023-04-03T08:51:22;11.10;96.40
5457;DHT22;2751;49.802;9.944;2023-04-03T08:53:55;11.70;94.50
5457;DHT22;2751;49.802;9.944;2023-04-03T08:56:24;12.50;92.70
5457;DHT22;2751;49.802;9.944;2023-04-03T08:58:56;12.60;90.50
5457;DHT22;2751;49.802;9.944;2023-04-03T09:01:27;13.10;89.80
5457;DHT22;2751;49.802;9.944;2023-04-03T09:03:56;13.50;86.30
5457;DHT22;2751;49.802;9.944;2023-04-03T09:06:25;13.30;84.90
5457;DHT22;2751;49.802;9.944;2023-04-03T09:09:06;12.40;83.90
5457;DHT22;2751;49.802;9.944;2023-04-03T09:11:45;12.40;84.50
5457;DHT22;2751;49.802;9.944;2023-04-03T09:14:20;12.60;82.80
5457;DHT22;2751;49.802;9.944;2023-04-03T09:16:53;12.40;80.50
5457;DHT22;2751;49.802;9.944;2023-04-03T09:19:30;13.40;80.90
5457;DHT22;2751;49.802;9.944;2023-04-03T09:22:01;13.30;80.00
5457;DHT22;2751;49.802;9.944;2023-04-03T09:24:31;13.40;77.90
5457;DHT22;2751;49.802;9.944;2023-04-03T09:27:03;13.50;75.30
5457;DHT22;2751;49.802;9.944;2023-04-03T09:29:34;14.00;73.70
5457;DHT22;2751;49.802;9.944;2023-04-03T09:32:19;14.30;71.80
5457;DHT22;2751;49.802;9.944;2023-04-03T09:34:49;12.70;71.50
5457;DHT22;2751;49.802;9.944;2023-04-03T09:37:39;13.00;71.60
5457;DHT22;2751;49.802;9.944;2023-04-03T09:40:32;13.80;68.50
5457;DHT22;2751;49.802;9.944;2023-04-03T09:43:02;12.60;69.50
5457;DHT22;2751;49.802;9.944;2023-04-03T09:45:32;13.20;69.50
5457;DHT22;2751;49.802;9.944;2023-04-03T09:48:08;13.80;66.40
5457;DHT22;2751;49.802;9.944;2023-04-03T09:50:53;14.40;66.20
5457;DHT22;2751;49.802;9.944;2023-04-03T09:53:29;15.30;63.90
5457;DHT22;2751;49.802;9.944;2023-04-03T09:55:57;13.90;63.30
5457;DHT22;2751;49.802;9.944;2023-04-03T09:58:30;14.10;64.30
5457;DHT22;2751;49.802;9.944;2023-04-03T10:01:01;14.40;61.60
5457;DHT22;2751;49.802;9.944;2023-04-03T10:03:31;15.20;58.20
5457;DHT22;2751;49.802;9.944;2023-04-03T10:06:00;14.80;57.50
5457;DHT22;2751;49.802;9.944;2023-04-03T10:08:29;14.60;55.70
5457;DHT22;2751;49.802;9.944;2023-04-03T10:11:12;15.20;1.00
5457;DHT22;2751;49.802;9.944;2023-04-03T10:13:55;15.90;1.00
5457;DHT22;2751;49.802;9.944;2023-04-03T10:16:29;16.40;1.00
5457;DHT22;2751;49.802;9.944;2023-04-03T10:19:22;16.40;1.00
5457;DHT22;2751;49.802;9.944;2023-04-03T10:21:56;16.90;1.00
5457;DHT22;2751;49.802;9.944;2023-04-03T10:24:30;16.60;1.00
5457;DHT22;2751;49.802;9.944;2023-04-03T10:27:05;16.50;1.00
5457;DHT22;2751;49.802;9.944;2023-04-03T10:29:40;16.30;1.00
5457;DHT22;2751;49.802;9.944;2023-04-03T10:32:26;17.20;1.00
5457;DHT22;2751;49.802;9.944;2023-04-03T10:35:03;18.00;1.00
5457;DHT22;2751;49.802;9.944;2023-04-03T10:37:46;17.50;1.00
5457;DHT22;2751;49.802;9.944;2023-04-03T10:40:24;17.10;1.00
5457;DHT22;2751;49.802;9.944;2023-04-03T10:43:00;17.50;1.00
5457;DHT22;2751;49.802;9.944;2023-04-03T10:45:31;17.20;1.00
5457;DHT22;2751;49.802;9.944;2023-04-03T10:48:11;17.10;1.00
5457;DHT22;2751;49.802;9.944;2023-04-03T10:50:46;17.30;1.00
5457;DHT22;2751;49.802;9.944;2023-04-03T10:53:20;17.90;1.00
5457;DHT22;2751;49.802;9.944;2023-04-03T10:55:56;17.20;1.00
5457;DHT22;2751;49.802;9.944;2023-04-03T10:58:30;16.70;1.00
5457;DHT22;2751;49.802;9.944;2023-04-03T11:01:02;16.20;1.00
5457;DHT22;2751;49.802;9.944;2023-04-03T11:03:34;14.20;1.00
5457;DHT22;2751;49.802;9.944;2023-04-03T11:06:04;14.50;1.00
5457;DHT22;2751;49.802;9.944;2023-04-03T11:08:35;14.80;1.00
5457;DHT22;2751;49.802;9.944;2023-04-03T11:11:08;16.40;1.00
5457;DHT22;2751;49.802;9.944;2023-04-03T11:13:40;18.00;1.00
5457;DHT22;2751;49.802;9.944;2023-04-03T11:16:08;18.60;1.00
5457;DHT22;2751;49.802;9.944;2023-04-03T11:18:40;16.90;1.00
5457;DHT22;2751;49.802;9.944;2023-04-03T11:21:14;15.70;1.00
5457;DHT22;2751;49.802;9.944;2023-04-03T11:23:44;14.90;1.00
5457;DHT22;2751;49.802;9.944;2023-04-03T11:26:13;14.20;1.00
5457;DHT22;2751;49.802;9.944;2023-04-03T11:28:42;14.00;1.00
5457;DHT22;2751;49.802;9.944;2023-04-03T11:31:20;15.50;1.00
5457;DHT22;2751;49.802;9.944;2023-04-03T11:33:58;17.40;1.00
5457;DHT22;2751;49.802;9.944;2023-04-03T11:36:32;18.40;1.00
5457;DHT22;2751;49.802;9.944;2023-04-03T11:39:07;19.40;1.00
5457;DHT22;2751;49.802;9.944;2023-04-03T11:41:36;18.40;1.00
5457;DHT22;2751;49.802;9.944;2023-04-03T11:44:05;19.20;1.00
5457;DHT22;2751;49.802;9.944;2023-04-03T11:46:51;20.50;1.00
5457;DHT22;2751;49.802;9.944;2023-04-03T11:49:51;20.70;1.00
5457;DHT22;2751;49.802;9.944;2023-04-03T11:55:55;19.60;1.00
5457;DHT22;2751;49.802;9.944;2023-04-03T11:58:24;19.50;1.00
5457;DHT22;2751;49.802;9.944;2023-04-03T12:00:54;20.10;1.00
5457;DHT22;2751;49.802;9.944;2023-04-03T12:10:13;22.40;1.00
5457;DHT22;2751;49.802;9.944;2023-04-03T12:12:42;22.60;1.00
5457;DHT22;2751;49.802;9.944;2023-04-03T12:21:18;20.80;1.00
5457;DHT22;2751;49.802;9.944;2023-04-03T12:24:04;18.50;1.00
5457;DHT22;2751;49.802;9.944;2023-04-03T12:26:41;18.20;1.00
5457;DHT22;2751;49.802;9.944;2023-04-03T12:29:16;17.70;1.00
5457;DHT22;2751;49.802;9.944;2023-04-03T12:31:52;18.20;1.00
5457;DHT22;2751;49.802;9.944;2023-04-03T12:34:34;19.20;1.00
5457;DHT22;2751;49.802;9.944;2023-04-03T12:37:09;19.30;1.00
5457;DHT22;2751;49.802;9.944;2023-04-03T12:39:52;19.10;1.00
5457;DHT22;2751;49.802;9.944;2023-04-03T12:42:55;20.40;1.00
5457;DHT22;2751;49.802;9.944;2023-04-03T12:45:25;21.10;1.00
5457;DHT22;2751;49.802;9.944;2023-04-03T12:47:53;21.90;1.00
5457;DHT22;2751;49.802;9.944;2023-04-03T12:50:23;22.30;1.00
5457;DHT22;2751;49.802;9.944;2023-04-03T12:53:00;21.60;1.00
5457;DHT22;2751;49.802;9.944;2023-04-03T12:55:28;21.60;1.00
5457;DHT22;2751;49.802;9.944;2023-04-03T12:57:56;20.40;1.00
5457;DHT22;2751;49.802;9.944;2023-04-03T13:00:32;21.60;1.00
5457;DHT22;2751;49.802;9.944;2023-04-03T13:03:01;20.50;1.00
5457;DHT22;2751;49.802;9.944;2023-04-03T13:05:30;20.60;1.00
5457;DHT22;2751;49.802;9.944;2023-04-03T13:08:01;21.40;1.00
5457;DHT22;2751;49.802;9.944;2023-04-03T13:10:29;22.60;1.00
5457;DHT22;2751;49.802;9.944;2023-04-03T13:13:07;22.40;1.00
5457;DHT22;2751;49.802;9.944;2023-04-03T13:15:41;21.80;1.00
5457;DHT22;2751;49.802;9.944;2023-04-03T13:18:22;22.70;1.00
5457;DHT22;2751;49.802;9.944;2023-04-03T13:20:49;23.50;1.00
5457;DHT22;2751;49.802;9.944;2023-04-03T13:23:17;23.30;1.00
5457;DHT22;2751;49.802;9.944;2023-04-03T13:25:46;23.00;1.00
5457;DHT22;2751;49.802;9.944;2023-04-03T13:28:18;23.80;1.00
5457;DHT22;2751;49.802;9.944;2023-04-03T13:30:56;21.80;1.00
5457;DHT22;2751;49.802;9.944;2023-04-03T13:33:25;20.60;1.00
5457;DHT22;2751;49.802;9.944;2023-04-03T13:35:58;19.50;1.00
5457;DHT22;2751;49.802;9.944;2023-04-03T13:38:28;17.50;1.00
5457;DHT22;2751;49.802;9.944;2023-04-03T13:40:58;14.80;1.00
5457;DHT22;2751;49.802;9.944;2023-04-03T13:43:29;15.50;1.00
5457;DHT22;2751;49.802;9.944;2023-04-03T13:46:00;17.70;1.00
5457;DHT22;2751;49.802;9.944;2023-04-03T13:48:36;19.20;1.00
5457;DHT22;2751;49.802;9.944;2023-04-03T13:51:05;20.10;1.00
5457;DHT22;2751;49.802;9.944;2023-04-03T13:53:40;18.60;1.00
5457;DHT22;2751;49.802;9.944;2023-04-03T13:56:09;17.90;1.00
5457;DHT22;2751;49.802;9.944;2023-04-03T13:58:54;17.00;1.00
5457;DHT22;2751;49.802;9.944;2023-04-03T14:01:23;15.70;1.00
5457;DHT22;2751;49.802;9.944;2023-04-03T14:03:54;14.40;1.00
5457;DHT22;2751;49.802;9.944;2023-04-03T14:06:22;13.00;1.00
5457;DHT22;2751;49.802;9.944;2023-04-03T14:08:49;12.30;1.00
5457;DHT22;2751;49.802;9.944;2023-04-03T14:11:18;11.50;1.00
5457;DHT22;2751;49.802;9.944;2023-04-03T14:13:48;11.20;1.00
5457;DHT22;2751;49.802;9.944;2023-04-03T14:16:18;10.70;1.00
5457;DHT22;2751;49.802;9.944;2023-04-03T14:18:46;10.50;1.00
5457;DHT22;2751;49.802;9.944;2023-04-03T14:21:15;10.30;1.00
5457;DHT22;2751;49.802;9.944;2023-04-03T14:23:43;10.10;1.00
5457;DHT22;2751;49.802;9.944;2023-04-03T14:26:12;10.00;1.00
5457;DHT22;2751;49.802;9.944;2023-04-03T14:28:39;10.00;1.00
5457;DHT22;2751;49.802;9.944;2023-04-03T14:31:09;9.90;1.00
5457;DHT22;2751;49.802;9.944;2023-04-03T14:33:37;9.70;1.00
5457;DHT22;2751;49.802;9.944;2023-04-03T14:36:13;10.10;1.00
5457;DHT22;2751;49.802;9.944;2023-04-03T14:38:41;9.90;1.00
5457;DHT22;2751;49.802;9.944;2023-04-03T14:41:10;9.80;1.00
5457;DHT22;2751;49.802;9.944;2023-04-03T14:43:38;9.20;1.00
5457;DHT22;2751;49.802;9.944;2023-04-03T14:46:14;9.00;1.00
5457;DHT22;2751;49.802;9.944;2023-04-03T14:48:41;9.10;1.00
5457;DHT22;2751;49.802;9.944;2023-04-03T14:51:10;9.10;1.00
5457;DHT22;2751;49.802;9.944;2023-04-03T14:53:38;9.40;1.00
5457;DHT22;2751;49.802;9.944;2023-04-03T14:56:11;9.00;1.00
5457;DHT22;2751;49.802;9.944;2023-04-03T14:58:39;9.10;1.00
5457;DHT22;2751;49.802;9.944;2023-04-03T15:01:05;8.90;1.00
5457;DHT22;2751;49.802;9.944;2023-04-03T15:03:34;8.50;1.00
5457;DHT22;2751;49.802;9.944;2023-04-03T15:06:01;8.90;1.00
5457;DHT22;2751;49.802;9.944;2023-04-03T15:08:28;9.00;1.00
5457;DHT22;2751;49.802;9.944;2023-04-03T15:10:56;9.10;1.00
5457;DHT22;2751;49.802;9.944;2023-04-03T15:13:24;8.90;1.00
5457;DHT22;2751;49.802;9.944;2023-04-03T15:15:52;8.90;1.00
5457;DHT22;2751;49.802;9.944;2023-04-03T15:18:21;9.10;1.00
5457;DHT22;2751;49.802;9.944;2023-04-03T15:20:50;9.00;1.00
5457;DHT22;2751;49.802;9.944;2023-04-03T15:23:17;8.70;1.00
5457;DHT22;2751;49.802;9.944;2023-04-03T15:25:45;8.50;1.00
5457;DHT22;2751;49.802;9.944;2023-04-03T15:28:18;8.40;1.00
5457;DHT22;2751;49.802;9.944;2023-04-03T15:30:46;8.60;1.00
5457;DHT22;2751;49.802;9.944;2023-04-03T15:33:13;8.70;1.00
5457;DHT22;2751;49.802;9.944;2023-04-03T15:35:41;8.70;1.00
5457;DHT22;2751;49.802;9.944;2023-04-03T15:38:09;8.70;1.00
5457;DHT22;2751;49.802;9.944;2023-04-03T15:40:36;8.70;1.00
5457;DHT22;2751;49.802;9.944;2023-04-03T15:43:04;8.70;1.00
5457;DHT22;2751;49.802;9.944;2023-04-03T15:45:31;8.80;1.00
5457;DHT22;2751;49.802;9.944;2023-04-03T15:47:58;8.80;1.00
5457;DHT22;2751;49.802;9.944;2023-04-03T15:50:25;8.70;1.00
5457;DHT22;2751;49.802;9.944;2023-04-03T15:52:52;8.50;1.00
5457;DHT22;2751;49.802;9.944;2023-04-03T15:55:22;8.30;1.00
5457;DHT22;2751;49.802;9.944;2023-04-03T15:57:49;8.10;1.00
5457;DHT22;2751;49.802;9.944;2023-04-03T16:00:16;8.00;1.00
5457;DHT22;2751;49.802;9.944;2023-04-03T16:02:45;7.90;1.00
5457;DHT22;2751;49.802;9.944;2023-04-03T16:05:13;8.00;1.00
5457;DHT22;2751;49.802;9.944;2023-04-03T16:07:43;8.00;1.00
5457;DHT22;2751;49.802;9.944;2023-04-03T16:10:11;8.10;1.00
5457;DHT22;2751;49.802;9.944;2023-04-03T16:12:40;8.10;1.00
5457;DHT22;2751;49.802;9.944;2023-04-03T16:15:07;8.10;1.00
5457;DHT22;2751;49.802;9.944;2023-04-03T16:17:36;8.10;1.00
5457;DHT22;2751;49.802;9.944;2023-04-03T16:20:05;8.30;1.00
5457;DHT22;2751;49.802;9.944;2023-04-03T16:22:33;8.20;1.00
5457;DHT22;2751;49.802;9.944;2023-04-03T16:25:00;8.20;1.00
5457;DHT22;2751;49.802;9.944;2023-04-03T16:27:27;8.00;1.00
5457;DHT22;2751;49.802;9.944;2023-04-03T16:29:57;7.90;1.00
5457;DHT22;2751;49.802;9.944;2023-04-03T16:32:27;7.70;1.00
5457;DHT22;2751;49.802;9.944;2023-04-03T16:34:55;7.90;1.00
5457;DHT22;2751;49.802;9.944;2023-04-03T16:37:22;7.60;1.00
5457;DHT22;2751;49.802;9.944;2023-04-03T16:39:49;7.70;1.00
5457;DHT22;2751;49.802;9.944;2023-04-03T16:42:16;8.00;1.00
5457;DHT22;2751;49.802;9.944;2023-04-03T16:44:43;7.90;1.00
5457;DHT22;2751;49.802;9.944;2023-04-03T16:47:11;7.80;1.00
5457;DHT22;2751;49.802;9.944;2023-04-03T16:49:39;7.80;1.00
5457;DHT22;2751;49.802;9.944;2023-04-03T16:52:06;7.60;1.00
5457;DHT22;2751;49.802;9.944;2023-04-03T16:54:33;7.40;1.00